• Join FlightAware (Why Join?)
  • Login
  • US Flag 
07:33AM EST


 

Airport Tracker/Info


-or-


 

Live Flight TrackerFlight Track Log ✈ UAL1459 ✈ 27-Apr-2014 ✈ TTPP / POS - KIAH

Flight Track Log - Related Links

Times and Time Zones

All times are in EDT time to prevent confusion due to time zone crossing. See the UAL1459 flight status page for this flight to view local times or setup timezone preferences in your user account.

Time Position Orientation Groundspeed Altitude Reporting Facility
EDT Latitude Longitude Course Direction KTS MPH feet Rate Location/Type
08:12AM 11.0710 -61.6375 328° Northwest  Level FlightAware Approximate
08:13AM 11.1661 -61.6976 328° Northwest  Level FlightAware Approximate
08:14AM 11.2611 -61.7578 328° Northwest  Level FlightAware Approximate
08:15AM 11.3562 -61.8181 328° Northwest  Level FlightAware Approximate
08:16AM 11.4513 -61.8783 328° Northwest  Level FlightAware Approximate
08:17AM 11.5463 -61.9386 328° Northwest  Level FlightAware Approximate
08:18AM 11.6413 -61.9990 328° Northwest  Level FlightAware Approximate
08:19AM 11.7363 -62.0594 328° Northwest  Level FlightAware Approximate
08:20AM 11.8313 -62.1199 328° Northwest  Level FlightAware Approximate
08:21AM 10.6890 -61.3962 328° Northwest  Level FlightAware Approximate
08:22AM 10.7827 -61.4552 328° Northwest  Level FlightAware Approximate
08:23AM 10.8764 -61.5142 328° Northwest  Level FlightAware Approximate
08:24AM 10.9700 -61.5732 328° Northwest  Level FlightAware Approximate
08:25AM 11.0636 -61.6323 328° Northwest  Level FlightAware Approximate
08:26AM 11.1573 -61.6914 328° Northwest  Level FlightAware Approximate
08:27AM 11.2509 -61.7506 328° Northwest  Level FlightAware Approximate
08:28AM 11.3445 -61.8098 328° Northwest  Level FlightAware Approximate
08:29AM 11.4381 -61.8690 328° Northwest  Level FlightAware Approximate
08:30AM 11.5316 -61.9283 328° Northwest  Level FlightAware Approximate
08:31AM 11.6252 -61.9876 328° Northwest  Level FlightAware Approximate
08:32AM 11.7187 -62.0470 328° Northwest  Level FlightAware Approximate
08:33AM 11.8123 -62.1064 328° Northwest  Level FlightAware Approximate
08:34AM 11.9058 -62.1658 328° Northwest  Level FlightAware Approximate
08:35AM 11.9993 -62.2253 328° Northwest  Level FlightAware Approximate
08:36AM 12.0928 -62.2848 328° Northwest  Level FlightAware Approximate
08:37AM 12.1567 -62.3766 328° Northwest  Level Estimated
08:38AM 12.2513 -62.4342 329° Northwest  Level FlightAware Approximate
08:39AM 12.3459 -62.4920 329° Northwest  Level FlightAware Approximate
08:40AM 12.4405 -62.5498 329° Northwest  Level FlightAware Approximate
08:41AM 12.5351 -62.6076 329° Northwest  Level FlightAware Approximate
08:42AM 12.6296 -62.6654 329° Northwest  Level FlightAware Approximate
08:43AM 12.7242 -62.7233 329° Northwest  Level FlightAware Approximate
08:44AM 12.8187 -62.7812 329° Northwest  Level FlightAware Approximate
08:45AM 12.9159 -62.8409 329° Northwest  Level FlightAware Approximate
08:46AM 13.0131 -62.9006 329° Northwest  Level FlightAware Approximate
08:47AM 13.1103 -62.9603 329° Northwest  Level FlightAware Approximate
08:48AM 13.2074 -63.0200 329° Northwest  Level FlightAware Approximate
08:49AM 13.3046 -63.0798 329° Northwest  Level FlightAware Approximate
08:50AM 13.4017 -63.1397 329° Northwest  Level FlightAware Approximate
08:51AM 13.4988 -63.1996 329° Northwest  Level FlightAware Approximate
08:52AM 13.5959 -63.2596 329° Northwest  Level FlightAware Approximate
08:53AM 13.6930 -63.3196 329° Northwest  Level FlightAware Approximate
08:54AM 13.7900 -63.3796 329° Northwest  Level FlightAware Approximate
08:54AM 15.1167 -64.2333 329° Northwest 440 506 34,000  Level San Juan Center
08:55AM 13.8871 -63.4397 329° Northwest  Level FlightAware Approximate
08:55AM 15.2167 -64.3167 321° Northwest 440 506 34,000  Level San Juan Center
08:56AM 13.9841 -63.4999 329° Northwest  Level FlightAware Approximate
08:56AM 15.3000 -64.4000 316° Northwest 440 506 34,000  Level San Juan Center
08:57AM 14.0812 -63.5601 329° Northwest  Level FlightAware Approximate
08:57AM 15.4000 -64.4833 321° Northwest 440 506 34,000  Level San Juan Center
08:58AM 14.1782 -63.6204 329° Northwest  Level FlightAware Approximate
08:58AM 15.5000 -64.5500 327° Northwest 430 495 34,000  Level San Juan Center
08:59AM 14.2752 -63.6807 329° Northwest  Level FlightAware Approximate
08:59AM 15.5833 -64.6333 316° Northwest 430 495 34,000  Level San Juan Center
09:00AM 15.6833 -64.7167 321° Northwest 440 506 34,000  Level San Juan Center
09:01AM 15.7833 -64.7833 327° Northwest 450 518 34,000  Level San Juan Center
09:02AM 15.8667 -64.8667 316° Northwest 430 495 34,000  Level San Juan Center
09:04AM 16.0667 -65.0500 319° Northwest 440 506 34,000  Level San Juan Center
09:05AM 16.1667 -65.1167 327° Northwest 440 506 34,000  Level San Juan Center
09:06AM 16.2500 -65.2000 316° Northwest 440 506 34,000  Level San Juan Center
09:07AM 16.3500 -65.2667 327° Northwest 430 495 34,000  Level San Juan Center
09:08AM 16.4500 -65.3500 321° Northwest 430 495 34,000  Level San Juan Center
09:09AM 16.5333 -65.4333 316° Northwest 430 495 34,000  Level San Juan Center
09:10AM 16.6333 -65.5000 327° Northwest 430 495 34,000  Level San Juan Center
09:11AM 16.7167 -65.5833 316° Northwest 430 495 34,000  Level San Juan Center
09:12AM 16.8167 -65.6667 321° Northwest 430 495 34,000  Level San Juan Center
09:13AM 16.9000 -65.7333 323° Northwest 420 483 34,000  Level San Juan Center
09:14AM 17.0000 -65.8167 321° Northwest 430 495 34,000  Level San Juan Center
09:15AM 17.0833 -65.9000 316° Northwest 430 495 34,000  Level San Juan Center
09:16AM 17.1833 -65.9833 321° Northwest 430 495 34,000  Level San Juan Center
09:17AM 17.2833 -66.0500 328° Northwest 430 495 34,000  Level San Juan Center
09:18AM 17.3667 -66.1333 316° Northwest 420 483 34,000  Level San Juan Center
09:19AM 17.4667 -66.2167 322° Northwest 430 495 34,000  Level San Juan Center
09:20AM 17.5500 -66.3000 316° Northwest 430 495 34,000  Level San Juan Center
09:21AM 17.6500 -66.3667 328° Northwest 420 483 34,000  Level San Juan Center
09:22AM 17.7333 -66.4500 316° Northwest 430 495 34,000  Level San Juan Center
09:23AM 17.8333 -66.5333 322° Northwest 430 495 34,000  Level San Juan Center
09:24AM 17.9167 -66.6167 316° Northwest 430 495 34,000  Level San Juan Center
09:25AM 18.0167 -66.6833 328° Northwest 430 495 34,000  Level San Juan Center
09:26AM 18.1167 -66.7833 316° Northwest 440 506 34,000  Level San Juan Center
09:27AM 18.2000 -66.8500 323° Northwest 420 483 34,000  Level San Juan Center
09:28AM 18.2833 -66.9333 316° Northwest 420 483 34,000  Level San Juan Center
09:29AM 18.3833 -67.0000 328° Northwest 420 483 34,000  Level San Juan Center
09:30AM 18.4667 -67.0833 317° Northwest 420 483 34,000  Level San Juan Center
09:31AM 18.5500 -67.1833 311° West 420 483 34,000  Level San Juan Center
09:32AM 18.6167 -67.2667 310° West 410 472 34,000  Level San Juan Center
09:33AM 18.6833 -67.3667 305° West 410 472 34,000  Level San Juan Center
09:34AM 18.7667 -67.4667 311° West 400 460 34,000  Level San Juan Center
09:35AM 18.8333 -67.5500 310° West 400 460 34,000  Level San Juan Center
09:36AM 18.9167 -67.6667 307° West 400 460 34,000  Level San Juan Center
09:37AM 18.9833 -67.7667 305° West 410 472 34,000  Level San Juan Center
09:38AM 19.0500 -67.8500 310° West 400 460 34,000  Level San Juan Center
09:39AM 19.1167 -67.9500 305° West 400 460 34,000  Level San Juan Center
09:40AM 19.2000 -68.0333 317° Northwest 400 460 34,000  Level San Juan Center
09:41AM 19.2667 -68.1333 305° West 400 460 34,000  Level San Juan Center
09:42AM 19.3333 -68.2167 310° West 390 449 34,000  Level San Juan Center
09:43AM 19.4000 -68.3167 305° West 400 460 34,000  Level San Juan Center
09:44AM 19.4667 -68.4167 305° West 400 460 34,000  Level San Juan Center
09:45AM 19.5333 -68.5000 310° West 400 460 34,000  Level San Juan Center
09:47AM 19.6592 -68.6564 311° West 462 532 34,000  Level Miami Center
09:48AM 19.7142 -68.7564 300° West 416 479 34,000  Level Miami Center
09:49AM 19.7711 -68.8542 302° West 395 455 34,000  Level Miami Center
09:50AM 19.8242 -68.9544 299° West 390 449 34,000  Level Miami Center
09:51AM 19.8731 -69.0594 296° West 390 449 34,000  Level Miami Center
09:52AM 19.9219 -69.1644 296° West 395 455 34,000  Level Miami Center
09:53AM 19.9869 -69.2578 307° West 395 455 34,000  Level Miami Center
09:54AM 20.0539 -69.3489 308° West 395 455 34,000  Level Miami Center
09:55AM 20.1106 -69.4494 301° West 395 455 34,000  Level Miami Center
09:56AM 20.1675 -69.5500 301° West 395 455 34,000  Level Miami Center
09:57AM 20.2283 -69.6483 303° West 400 460 34,000  Level Miami Center
09:58AM 20.2828 -69.7492 300° West 400 460 34,000  Level Miami Center
09:59AM 20.3375 -69.8522 300° West 400 460 34,000  Level Miami Center
10:00AM 20.3961 -69.9511 302° West 395 455 34,000  Level Miami Center
10:01AM 20.4506 -70.0522 300° West 395 455 34,000  Level Miami Center
10:02AM 20.5069 -70.1489 302° West 390 449 34,000  Level Miami Center
10:03AM 20.5633 -70.2500 301° West 390 449 34,000  Level Miami Center
10:04AM 20.6217 -70.3514 302° West 390 449 34,000  Level Miami Center
10:05AM 20.6781 -70.4550 300° West 390 449 34,000  Level Miami Center
10:06AM 20.7367 -70.5586 301° West 395 455 34,000  Level Miami Center
10:07AM 20.7931 -70.6622 300° West 400 460 34,000  Level Miami Center
10:08AM 20.8511 -70.7661 301° West 400 460 34,000  Level Miami Center
10:09AM 20.9094 -70.8678 302° West 407 468 34,000  Level Miami Center
10:10AM 20.9678 -70.9739 301° West 407 468 34,000  Level Miami Center
10:11AM 21.0239 -71.0781 300° West 407 468 34,000  Level Miami Center
10:12AM 21.0819 -71.1822 301° West 407 468 34,000  Level Miami Center
10:13AM 21.1444 -71.2997 300° West 407 468 34,000  Level Miami Center
10:14AM 21.2025 -71.4039 301° West 412 474 34,000  Level Miami Center
10:15AM 21.2625 -71.5128 301° West 412 474 34,000  Level Miami Center
10:16AM 21.3225 -71.6172 302° West 412 474 34,000  Level Miami Center
10:17AM 21.3825 -71.7242 301° West 412 474 34,000  Level Miami Center
10:18AM 21.4403 -71.8289 301° West 412 474 34,000  Level Miami Center
10:19AM 21.5000 -71.9381 300° West 412 474 34,000  Level Miami Center
10:20AM 21.5578 -72.0453 300° West 412 474 34,000  Level Miami Center
10:21AM 21.6194 -72.1500 302° West 412 474 34,000  Level Miami Center
10:22AM 21.6850 -72.2528 304° West 417 480 34,000  Level Miami Center
10:23AM 21.7364 -72.3625 297° West 417 480 34,000  Level Miami Center
10:24AM 21.7917 -72.4725 298° West 417 480 34,000  Level Miami Center
10:25AM 21.8492 -72.5825 299° West 417 480 34,000  Level Miami Center
10:26AM 21.9083 -72.6878 301° West 412 474 34,000  Level Miami Center
10:27AM 21.9656 -72.7958 300° West 412 474 34,000  Level Miami Center
10:28AM 22.0208 -72.9058 298° West 412 474 34,000  Level Miami Center
10:29AM 22.0861 -73.0114 304° West 412 474 34,000  Level Miami Center
10:30AM 22.1431 -73.1242 299° West 417 480 34,000  Level Miami Center
10:31AM 22.2000 -73.2347 299° West 412 474 34,000  Level Miami Center
10:32AM 22.2611 -73.3428 301° West 417 480 34,000  Level Miami Center
10:33AM 22.3092 -73.4403 298° West 417 480 34,000  Level Miami Center
10:34AM 22.3661 -73.5533 299° West 417 480 34,000  Level Miami Center
10:35AM 22.4289 -73.6594 303° West 417 480 34,000  Level Miami Center
10:36AM 22.4833 -73.7706 298° West 417 480 34,000  Level Miami Center
10:37AM 22.5419 -73.8817 300° West 417 480 34,000  Level Miami Center
10:38AM 22.6006 -73.9906 300° West 417 480 34,000  Level Miami Center
10:39AM 22.6569 -74.1017 299° West 417 480 34,000  Level Miami Center
10:40AM 22.7175 -74.2131 301° West 423 487 34,000  Level Miami Center
10:41AM 22.7778 -74.3244 300° West 423 487 34,000  Level Miami Center
10:42AM 22.8361 -74.4358 300° West 423 487 34,000  Level Miami Center
10:43AM 22.8964 -74.5567 298° West 423 487 34,000  Level Miami Center
10:44AM 22.9567 -74.6706 300° West 423 487 34,000  Level Miami Center
10:45AM 23.0167 -74.7800 301° West 429 494 34,000  Level Miami Center
10:46AM 23.0725 -74.8944 298° West 429 494 34,000  Level Miami Center
10:47AM 23.1325 -75.0064 300° West 429 494 34,000  Level Miami Center
10:48AM 23.1861 -75.1231 297° West 429 494 34,000  Level Miami Center
10:49AM 23.2333 -75.2400 294° West 429 494 34,000  Level Miami Center
10:50AM 23.2786 -75.3617 292° West 424 488 34,000  Level Miami Center
10:51AM 23.3172 -75.4833 289° West 424 488 34,000  Level Miami Center
10:52AM 23.3517 -75.6028 287° West 430 495 34,000  Level Miami Center
10:53AM 23.3842 -75.7317 285° West 425 489 34,000  Level Miami Center
10:54AM 23.4164 -75.8581 286° West 433 498 34,000  Level Miami Center
10:55AM 23.4319 -75.9803 278° West 451 519 34,000  Level Miami Center
10:56AM 23.4492 -76.1069 278° West 445 512 34,000  Level Miami Center
10:57AM 23.4603 -76.2339 275° West 434 499 34,000  Level Miami Center
10:58AM 23.4878 -76.3558 284° West 428 493 34,000  Level Miami Center
10:59AM 23.5322 -76.4736 292° West 423 487 34,000  Level Miami Center
11:00AM 23.5931 -76.5867 300° West 423 487 34,000  Level Miami Center
11:01AM 23.6517 -76.6956 300° West 423 487 34,000  Level Miami Center
11:02AM 23.7103 -76.8044 300° West 423 487 34,000  Level Miami Center
11:03AM 23.7689 -76.9156 300° West 423 487 34,000  Level Miami Center
11:04AM 23.8294 -77.0269 301° West 423 487 34,000  Level Miami Center
11:05AM 23.8919 -77.1453 300° West 423 487 34,000  Level Miami Center
11:06AM 23.9481 -77.2592 298° West 423 487 34,000  Level Miami Center
11:07AM 24.0083 -77.3661 302° West 423 487 34,000  Level Miami Center
11:08AM 24.0706 -77.4781 301° West 423 487 34,000  Level Miami Center
11:09AM 24.1306 -77.5944 299° West 423 487 34,000  Level Miami Center
11:10AM 24.1886 -77.7039 300° West 434 499 34,000  Level Miami Center
11:11AM 24.2506 -77.8206 300° West 434 499 34,000  Level Miami Center
11:12AM 24.3106 -77.9350 300° West 434 499 34,000  Level Miami Center
11:13AM 24.3681 -78.0475 299° West 434 499 34,000  Level Miami Center
11:14AM 24.4319 -78.1644 301° West 434 499 34,000  Level Miami Center
11:15AM 24.4914 -78.2792 300° West 434 499 34,000  Level Miami Center
11:16AM 24.5531 -78.3919 301° West 434 499 34,000  Level Miami Center
11:17AM 24.6103 -78.5047 299° West 434 499 34,000  Level Miami Center
11:18AM 24.6697 -78.6175 300° West 434 499 34,000  Level Miami Center
11:19AM 24.7289 -78.7325 300° West 434 499 34,000  Level Miami Center
11:20AM 24.7858 -78.8456 299° West 434 499 34,000  Level Miami Center
11:21AM 24.8492 -78.9567 302° West 429 494 34,000  Level Miami Center
11:22AM 24.9081 -79.0744 299° West 429 494 34,000  Level Miami Center
11:23AM 24.9647 -79.1900 298° West 434 499 34,000  Level Miami Center
11:24AM 25.0256 -79.3058 300° West 434 499 34,000  Level Miami Center
11:25AM 25.0842 -79.4217 299° West 434 499 34,000  Level Miami Center
11:26AM 25.1428 -79.5356 300° West 434 499 34,000  Level Miami Center
11:27AM 25.2033 -79.6539 300° West 434 499 34,000  Level Miami Center
11:28AM 25.2597 -79.7678 299° West 434 499 34,000  Level Miami Center
11:29AM 25.3200 -79.8842 300° West 434 499 34,000 -50 Level Miami Center
11:30AM 25.3781 -79.9981 299° West 434 499 33,900  Descending Miami Center
11:31AM 25.4361 -80.1147 299° West 434 499 34,000 50 Climbing Miami Center
11:32AM 25.4900 -80.2336 297° West 434 499 34,000 -50 Level Miami Center
11:33AM 25.5372 -80.3522 294° West 434 499 33,900  Descending Miami Center
11:34AM 25.5886 -80.4758 295° West 442 509 34,000 50 Climbing Miami Center
11:35AM 25.6400 -80.5950 296° West 437 503 34,000  Level Miami Center
11:36AM 25.6869 -80.7117 294° West 427 491 34,000  Level Miami Center
11:37AM 25.7383 -80.8217 297° West 427 491 34,000  Level Miami Center
11:38AM 25.7875 -80.9408 295° West 427 491 34,000  Level Miami Center
11:39AM 25.8361 -81.0603 294° West 427 491 34,000  Level Miami Center
11:40AM 25.8869 -81.1797 295° West 427 491 34,000  Level Miami Center
11:41AM 25.9356 -81.3017 294° West 427 491 34,000  Level Miami Center
11:42AM 25.9842 -81.4211 294° West 427 491 34,000 -50 Level Miami Center
11:43AM 26.0347 -81.5411 295° West 427 491 33,900 -50 Descending Miami Center
11:44AM 26.0831 -81.6608 294° West 427 491 33,900 50 Level Miami Center
11:45AM 26.1333 -81.7808 295° West 427 491 34,000 50 Climbing Miami Center
11:46AM 26.1833 -81.9008 295° West 427 491 34,000  Level Miami Center
11:47AM 26.2272 -82.0253 291° West 419 482 34,000 -50 Level Miami Center
11:48AM 26.2753 -82.1408 295° West 419 482 33,900  Descending Miami Center
11:49AM 26.3231 -82.2611 294° West 419 482 34,000 50 Climbing Miami Center
11:50AM 26.3708 -82.3792 294° West 419 482 34,000  Level Miami Center
11:51AM 26.4181 -82.5019 293° West 419 482 34,000 -50 Level Miami Center
11:52AM 26.4658 -82.6178 295° West 419 482 33,900  Descending Miami Center
11:53AM 26.5111 -82.7361 293° West 419 482 34,000 50 Climbing Miami Center
11:54AM 26.5586 -82.8544 294° West 419 482 34,000 -50 Level Miami Center
11:55AM 26.6058 -82.9731 294° West 419 482 33,900  Descending Miami Center
11:56AM 26.6528 -83.0914 294° West 419 482 34,000  Climbing Miami Center
11:57AM 26.6978 -83.2100 293° West 419 482 33,900 -50 Descending Miami Center
11:58AM 26.7489 -83.3314 295° West 419 482 33,900 50 Level Miami Center
11:59AM 26.7936 -83.4500 293° West 419 482 34,000 50 Climbing Miami Center
12:00PM 26.8403 -83.5689 294° West 419 482 34,000 -50 Level Miami Center
12:01PM 26.8867 -83.6903 293° West 419 482 33,900  Descending Miami Center
12:02PM 26.9331 -83.8117 293° West 419 482 34,000 50 Climbing Miami Center
12:03PM 26.9797 -83.9286 294° West 419 482 34,000 -50 Level Miami Center
12:04PM 27.0278 -84.0503 294° West 419 482 33,900  Descending Miami Center
12:05PM 27.0700 -84.1669 292° West 419 482 34,000 50 Climbing Miami Center
12:06PM 27.1119 -84.2839 292° West 419 482 34,000  Level Miami Center
12:07PM 27.1619 -84.4036 295° West 419 482 34,000  Level Miami Center
12:09PM 27.2453 -84.6286 293° West 414 476 34,000 -35 Level Jacksonville Center
12:10PM 27.2897 -84.7483 293° West 414 476 33,900  Descending Jacksonville Center
12:11PM 27.3336 -84.8681 292° West 414 476 34,000 50 Climbing Jacksonville Center
12:12PM 27.3839 -84.9883 295° West 419 482 34,000  Level Jacksonville Center
12:13PM 27.4258 -85.1131 291° West 419 482 34,000 -50 Level Jacksonville Center
12:14PM 27.4717 -85.2308 294° West 419 482 33,900  Descending Jacksonville Center
12:15PM 27.5175 -85.3442 295° West 408 470 34,000 50 Climbing Jacksonville Center
12:16PM 27.5592 -85.4575 293° West 408 470 34,000 -50 Level Jacksonville Center
12:17PM 27.6044 -85.5803 293° West 415 478 33,900  Descending Jacksonville Center
12:18PM 27.6750 -85.7731 292° West 410 472 34,000 39 Climbing Houston Center
12:19PM 27.7181 -85.8889 293° West 404 465 34,000  Level Houston Center
12:20PM 27.7619 -86.0083 293° West 412 474 34,000  Level Houston Center
12:21PM 27.8056 -86.1286 292° West 410 472 34,000  Level Houston Center
12:23PM 27.8669 -86.3031 292° West 417 480 34,000  Level Jacksonville Center
12:24PM 27.9117 -86.4244 293° West 417 480 34,000 -50 Level Jacksonville Center
12:25PM 27.9542 -86.5433 292° West 409 471 33,900 -50 Descending Jacksonville Center
12:26PM 27.9986 -86.6672 292° West 417 480 33,900 50 Level Jacksonville Center
12:27PM 28.0392 -86.7814 292° West 412 474 34,000 50 Climbing Jacksonville Center
12:28PM 28.0833 -86.9008 293° West 412 474 34,000 -50 Level Jacksonville Center
12:29PM 28.1275 -87.0247 292° West 412 474 33,900 -50 Descending Jacksonville Center
12:30PM 28.1656 -87.1347 291° West 404 465 33,900 51 Level Jacksonville Center
12:31PM 28.2072 -87.2500 292° West 409 471 34,000 50 Climbing Houston Center
12:32PM 28.2506 -87.3714 292° West 411 473 34,000  Level Houston Center
12:33PM 28.2928 -87.4911 292° West 411 473 34,000  Level Houston Center
12:34PM 28.3358 -87.6117 292° West 411 473 34,000  Level Houston Center
12:35PM 28.3769 -87.7317 291° West 411 473 34,000  Level Houston Center
12:36PM 28.4189 -87.8536 291° West 412 474 34,000 -48 Level Houston Center
12:37PM 28.4692 -87.9986 292° West 412 474 33,900  Descending Houston Center
12:38PM 28.5081 -88.1117 291° West 412 474 34,000 48 Climbing Houston Center
12:39PM 28.5506 -88.2322 292° West 412 474 34,000 -48 Level Houston Center
12:40PM 28.6000 -88.3792 291° West 412 474 33,900  Descending Houston Center
12:41PM 28.6417 -88.4994 292° West 412 474 34,000 48 Climbing Houston Center
12:42PM 28.6825 -88.6214 291° West 412 474 34,000  Level Houston Center
12:43PM 28.7244 -88.7431 291° West 412 474 34,000 -48 Level Houston Center
12:44PM 28.7653 -88.8647 291° West 412 474 33,900  Descending Houston Center
12:45PM 28.8061 -88.9875 291° West 412 474 34,000 48 Climbing Houston Center
12:46PM 28.8550 -89.1339 291° West 412 474 34,000  Level Houston Center
12:47PM 28.8944 -89.2542 291° West 410 472 34,000  Level Houston Center
12:48PM 28.9344 -89.3706 291° West 400 460 34,000 -192 Level Houston Center
12:49PM 28.9739 -89.4908 291° West 400 460 33,600 -672 Descending Houston Center
12:50PM 29.0144 -89.6128 291° West 404 465 32,600 -823 Descending Houston Center
12:51PM 29.0556 -89.7389 290° West 417 480 31,900 -339 Descending Houston Center
12:52PM 29.1031 -89.8842 291° West 412 474 31,900  Level Houston Center
12:53PM 29.1436 -90.0092 290° West 415 478 31,900 48 Level Houston Center
12:54PM 29.1800 -90.1344 288° West 415 478 32,000  Climbing Houston Center
12:55PM 29.1953 -90.2650 278° West 418 481 31,900 -48 Descending Houston Center
12:57PM 29.2125 -90.3931 279° West 411 473 31,900  Level Houston Center
12:58PM 29.2281 -90.5200 278° West 408 470 31,900 -96 Level Houston Center
12:59PM 29.2475 -90.6736 278° West 408 470 31,700 -871 Descending Houston Center
01:00PM 29.2767 -90.8017 285° West 412 474 30,100 -871 Descending Houston Center
01:01PM 29.3108 -90.9319 287° West 425 489 29,900 -48 Descending Houston Center
01:02PM 29.3433 -91.0553 287° West 412 474 30,000 48 Climbing Houston Center
01:03PM 29.3764 -91.1783 287° West 407 468 30,000  Level Houston Center
01:04PM 29.4025 -91.3044 283° West 407 468 30,000  Level Houston Center
01:05PM 29.4075 -91.4569 272° West 404 465 30,000  Level Houston Center
01:06PM 29.4133 -91.5850 273° West 404 465 30,000  Level Houston Center
01:07PM 29.4219 -91.7206 274° West 403 464 30,000  Level Houston Center
01:08PM 29.4144 -91.8478 266° West 405 466 30,000  Level Houston Center
01:09PM 29.3594 -91.9617 241° Southwest 407 468 30,000 -48 Level Houston Center
01:10PM 29.3044 -92.0739 241° Southwest 406 467 29,900  Descending Houston Center
01:11PM 29.2717 -92.1939 253° West 405 466 30,000  Climbing Houston Center
01:12PM 29.3014 -92.3186 285° West 406 467 29,900  Descending Houston Center
01:13PM 29.3358 -92.4681 285° West 405 466 30,000 48 Climbing Houston Center
01:14PM 29.3664 -92.5936 286° West 406 467 30,000 -48 Level Houston Center
01:15PM 29.3972 -92.7192 286° West 408 470 29,900 -484 Descending Houston Center
01:16PM 29.4283 -92.8458 286° West 411 473 29,000 -919 Descending Houston Center
01:17PM 29.4600 -92.9736 286° West 412 474 28,000 -968 Descending Houston Center
01:18PM 29.4864 -93.1006 283° West 411 473 27,000 -1,056 Descending Houston Center
01:19PM 29.4928 -93.2542 273° West 402 463 25,800 -1,056 Descending Houston Center
01:20PM 29.4978 -93.3778 273° West 392 451 24,800 -968 Descending Houston Center
01:21PM 29.5025 -93.5000 273° West 388 447 23,800 -968 Descending Houston Center
01:22PM 29.5081 -93.6236 273° West 387 445 22,800 -968 Descending Houston Center
01:23PM 29.5131 -93.7461 273° West 385 443 21,800 -968 Descending Houston Center
01:24PM 29.5169 -93.8661 272° West 381 438 20,800 -1,258 Descending Houston Center
01:26PM 29.5225 -94.0067 273° West 370 426 19,200 -1,800 Descending Houston Center
01:26PM 29.5239 -94.0747 271° West 362 417 17,800 -2,286 Descending Houston Center
01:27PM 29.5261 -94.1208 273° West 363 418 16,800 -2,239 Descending Houston Center
01:27PM 29.5267 -94.2067 270° West 351 404 15,300 -2,032 Descending Houston Center
01:28PM 29.5306 -94.2375 278° West 350 403 14,700 -1,967 Descending Houston Center
01:28PM 29.5314 -94.3167 271° West 342 394 13,300 -1,548 Descending Houston Center
01:29PM 29.5358 -94.3469 280° West 347 399 13,100 -590 Descending Houston Center
01:29PM 29.5647 -94.4181 295° West 345 397 12,700 -677 Descending Houston Center
01:30PM 29.5772 -94.4456 298° West 346 398 12,400 -1,161 Descending Houston Center
01:30PM 29.6058 -94.5161 295° West 330 380 11,500 -1,161 Descending Houston Center
01:31PM 29.6178 -94.5386 301° West 333 383 11,200 -1,180 Descending Houston Center
01:31PM 29.6444 -94.6097 293° West 307 353 10,300 -1,065 Descending Houston Center
01:32PM 29.6547 -94.6278 303° West 314 361 10,100 -1,475 Descending Houston Center
01:32PM 29.6978 -94.6825 312° West 298 343 8,800 -1,905 Descending Houston Center
01:33PM 29.7244 -94.7033 326° Northwest 302 348 8,100 -1,574 Descending Houston Center
01:33PM 29.7642 -94.7389 322° Northwest 294 338 7,200 -1,355 Descending Houston Center
01:34PM 29.7903 -94.7583 327° Northwest 298 343 6,700 -1,082 Descending Houston Center
01:34PM 29.8303 -94.7933 323° Northwest 293 337 6,100 -581 Descending Houston Center
01:35PM 29.8550 -94.8122 326° Northwest 293 337 6,100 -327 Level Houston Center
01:35PM 29.8858 -94.8467 316° Northwest 284 327 5,800 -677 Descending Houston Center
01:36PM 29.8986 -94.8808 293° West 289 333 5,400 -1,075 Descending Houston Center
01:36PM 29.9156 -94.9369 289° West 265 305 4,600 -1,065 Descending Houston Center
01:37PM 29.9239 -94.9597 293° West 272 313 4,300 -1,179 Descending Houston Center
01:37PM 29.9369 -95.0089 287° West 252 290 3,500 -2,032 Descending Houston Center
01:38PM 29.9517 -95.0531 291° West 263 303 2,200 -1,500 Descending Houston Center
01:38PM 29.9633 -95.0878 291° West 271 312 2,000 -97 Descending Houston Center
01:39PM 29.9758 -95.1303 289° West 263 303 2,100 97 Climbing Houston Center
01:39PM 29.9783 -95.1606 275° West 180 207 2,100 -97 Level Houston Center
01:40PM 29.9783 -95.1872 270° West 208 239 2,000 -492 Descending Houston Center
01:40PM 29.9772 -95.2161 267° West 167 192 1,600 -762 Descending Houston Center
01:41PM 29.9775 -95.2403 271° West 181 208 1,200 -885 Descending Houston Center
01:41PM 29.9778 -95.2669 271° West 168 193 700 -677 Descending Houston Center
01:42PM 29.9767 -95.2969 268° West 171 197 500 -300 Descending Houston Center
01:44PM 29.9833 -95.3333 311° West  Level FlightAware Approximate